sensor_id;sensor_type;location;lat;lon;timestamp;temperature;humidity
913;DHT22;443;51.448;7.028;2023-04-25T00:02:08;13.40;71.60
913;DHT22;443;51.448;7.028;2023-04-25T00:04:35;13.30;71.10
913;DHT22;443;51.448;7.028;2023-04-25T00:07:03;13.40;73.10
913;DHT22;443;51.448;7.028;2023-04-25T00:09:32;13.30;70.70
913;DHT22;443;51.448;7.028;2023-04-25T00:11:59;13.30;71.40
913;DHT22;443;51.448;7.028;2023-04-25T00:14:26;13.30;71.50
913;DHT22;443;51.448;7.028;2023-04-25T00:16:54;13.40;71.30
913;DHT22;443;51.448;7.028;2023-04-25T00:19:21;13.40;71.90
913;DHT22;443;51.448;7.028;2023-04-25T00:21:48;13.30;71.00
913;DHT22;443;51.448;7.028;2023-04-25T00:24:15;13.40;71.90
913;DHT22;443;51.448;7.028;2023-04-25T00:26:43;13.30;71.50
913;DHT22;443;51.448;7.028;2023-04-25T00:29:10;13.40;71.30
913;DHT22;443;51.448;7.028;2023-04-25T00:31:37;13.30;71.20
913;DHT22;443;51.448;7.028;2023-04-25T00:34:03;13.30;71.70
913;DHT22;443;51.448;7.028;2023-04-25T00:36:30;13.40;71.70
913;DHT22;443;51.448;7.028;2023-04-25T00:38:57;13.30;71.70
913;DHT22;443;51.448;7.028;2023-04-25T00:41:25;13.30;71.40
913;DHT22;443;51.448;7.028;2023-04-25T00:43:54;13.30;71.20
913;DHT22;443;51.448;7.028;2023-04-25T00:46:21;13.30;71.80
913;DHT22;443;51.448;7.028;2023-04-25T00:48:47;13.30;71.60
913;DHT22;443;51.448;7.028;2023-04-25T00:51:16;13.30;72.90
913;DHT22;443;51.448;7.028;2023-04-25T00:53:46;13.30;71.70
913;DHT22;443;51.448;7.028;2023-04-25T00:56:13;13.30;71.90
913;DHT22;443;51.448;7.028;2023-04-25T00:58:40;13.30;73.10
913;DHT22;443;51.448;7.028;2023-04-25T01:01:10;13.30;72.60
913;DHT22;443;51.448;7.028;2023-04-25T01:03:38;13.30;71.80
913;DHT22;443;51.448;7.028;2023-04-25T01:06:07;13.30;71.70
913;DHT22;443;51.448;7.028;2023-04-25T01:08:34;13.30;71.80
913;DHT22;443;51.448;7.028;2023-04-25T01:11:01;13.30;72.80
913;DHT22;443;51.448;7.028;2023-04-25T01:13:28;13.30;72.20
913;DHT22;443;51.448;7.028;2023-04-25T01:15:55;13.30;71.90
913;DHT22;443;51.448;7.028;2023-04-25T01:18:23;13.30;72.00
913;DHT22;443;51.448;7.028;2023-04-25T01:20:51;13.30;71.60
913;DHT22;443;51.448;7.028;2023-04-25T01:23:19;13.30;72.20
913;DHT22;443;51.448;7.028;2023-04-25T01:25:47;13.20;72.00
913;DHT22;443;51.448;7.028;2023-04-25T01:28:14;13.30;72.30
913;DHT22;443;51.448;7.028;2023-04-25T01:30:41;13.30;72.30
913;DHT22;443;51.448;7.028;2023-04-25T01:33:08;13.20;72.50
913;DHT22;443;51.448;7.028;2023-04-25T01:35:35;13.30;71.70
913;DHT22;443;51.448;7.028;2023-04-25T01:38:02;13.20;72.20
913;DHT22;443;51.448;7.028;2023-04-25T01:40:30;13.20;71.70
913;DHT22;443;51.448;7.028;2023-04-25T01:42:58;13.20;72.50
913;DHT22;443;51.448;7.028;2023-04-25T01:45:24;13.20;72.60
913;DHT22;443;51.448;7.028;2023-04-25T01:47:51;13.30;72.60
913;DHT22;443;51.448;7.028;2023-04-25T01:50:18;13.30;72.00
913;DHT22;443;51.448;7.028;2023-04-25T01:52:45;13.30;72.40
913;DHT22;443;51.448;7.028;2023-04-25T01:55:12;13.30;72.40
913;DHT22;443;51.448;7.028;2023-04-25T01:57:40;13.30;72.50
913;DHT22;443;51.448;7.028;2023-04-25T02:00:08;13.30;72.50
913;DHT22;443;51.448;7.028;2023-04-25T02:02:35;13.30;72.70
913;DHT22;443;51.448;7.028;2023-04-25T02:05:02;13.30;72.00
913;DHT22;443;51.448;7.028;2023-04-25T02:07:29;13.30;73.90
913;DHT22;443;51.448;7.028;2023-04-25T02:09:56;13.20;71.90
913;DHT22;443;51.448;7.028;2023-04-25T02:12:25;13.30;72.80
913;DHT22;443;51.448;7.028;2023-04-25T02:14:54;13.20;73.00
913;DHT22;443;51.448;7.028;2023-04-25T02:17:20;13.20;71.90
913;DHT22;443;51.448;7.028;2023-04-25T02:19:48;13.20;73.00
913;DHT22;443;51.448;7.028;2023-04-25T02:22:15;13.20;72.30
913;DHT22;443;51.448;7.028;2023-04-25T02:24:42;13.20;72.90
913;DHT22;443;51.448;7.028;2023-04-25T02:27:09;13.20;72.40
913;DHT22;443;51.448;7.028;2023-04-25T02:29:35;13.20;72.60
913;DHT22;443;51.448;7.028;2023-04-25T02:32:04;13.20;72.60
913;DHT22;443;51.448;7.028;2023-04-25T02:34:30;13.20;72.30
913;DHT22;443;51.448;7.028;2023-04-25T02:36:57;13.20;72.20
913;DHT22;443;51.448;7.028;2023-04-25T02:39:24;13.20;72.70
913;DHT22;443;51.448;7.028;2023-04-25T02:41:52;13.20;72.70
913;DHT22;443;51.448;7.028;2023-04-25T02:44:19;13.20;72.60
913;DHT22;443;51.448;7.028;2023-04-25T02:46:46;13.20;72.60
913;DHT22;443;51.448;7.028;2023-04-25T02:49:14;13.20;73.10
913;DHT22;443;51.448;7.028;2023-04-25T02:51:41;13.20;73.30
913;DHT22;443;51.448;7.028;2023-04-25T02:54:08;13.20;73.10
913;DHT22;443;51.448;7.028;2023-04-25T02:56:34;13.20;73.00
913;DHT22;443;51.448;7.028;2023-04-25T02:59:01;13.20;72.80
913;DHT22;443;51.448;7.028;2023-04-25T03:01:28;13.20;72.60
913;DHT22;443;51.448;7.028;2023-04-25T03:03:55;13.20;72.80
913;DHT22;443;51.448;7.028;2023-04-25T03:06:23;13.10;72.20
913;DHT22;443;51.448;7.028;2023-04-25T03:08:49;13.20;72.80
913;DHT22;443;51.448;7.028;2023-04-25T03:11:16;13.20;73.60
913;DHT22;443;51.448;7.028;2023-04-25T03:13:45;13.20;72.70
913;DHT22;443;51.448;7.028;2023-04-25T03:16:12;13.20;72.90
913;DHT22;443;51.448;7.028;2023-04-25T03:18:38;13.20;73.20
913;DHT22;443;51.448;7.028;2023-04-25T03:21:05;13.10;72.10
913;DHT22;443;51.448;7.028;2023-04-25T03:23:33;13.10;72.20
913;DHT22;443;51.448;7.028;2023-04-25T03:26:00;13.20;74.40
913;DHT22;443;51.448;7.028;2023-04-25T03:28:27;13.20;72.70
913;DHT22;443;51.448;7.028;2023-04-25T03:30:54;13.10;72.80
913;DHT22;443;51.448;7.028;2023-04-25T03:33:20;13.10;73.10
913;DHT22;443;51.448;7.028;2023-04-25T03:35:47;13.10;72.30
913;DHT22;443;51.448;7.028;2023-04-25T03:38:15;13.10;72.50
913;DHT22;443;51.448;7.028;2023-04-25T03:40:43;13.10;72.70
913;DHT22;443;51.448;7.028;2023-04-25T03:43:10;13.10;73.00
913;DHT22;443;51.448;7.028;2023-04-25T03:45:36;13.10;73.30
913;DHT22;443;51.448;7.028;2023-04-25T03:48:04;13.10;72.70
913;DHT22;443;51.448;7.028;2023-04-25T03:50:30;13.10;72.80
913;DHT22;443;51.448;7.028;2023-04-25T03:52:57;13.10;72.40
913;DHT22;443;51.448;7.028;2023-04-25T03:55:24;13.10;72.50
913;DHT22;443;51.448;7.028;2023-04-25T03:57:52;13.10;73.10
913;DHT22;443;51.448;7.028;2023-04-25T04:00:19;13.10;72.30
913;DHT22;443;51.448;7.028;2023-04-25T04:02:45;13.10;73.00
913;DHT22;443;51.448;7.028;2023-04-25T04:05:12;13.10;73.00
913;DHT22;443;51.448;7.028;2023-04-25T04:07:39;13.10;73.20
913;DHT22;443;51.448;7.028;2023-04-25T04:10:08;13.10;73.30
913;DHT22;443;51.448;7.028;2023-04-25T04:12:35;13.10;73.60
913;DHT22;443;51.448;7.028;2023-04-25T04:15:04;13.00;73.40
913;DHT22;443;51.448;7.028;2023-04-25T04:17:32;13.00;73.60
913;DHT22;443;51.448;7.028;2023-04-25T04:19:59;13.00;73.10
913;DHT22;443;51.448;7.028;2023-04-25T04:22:25;13.00;73.20
913;DHT22;443;51.448;7.028;2023-04-25T04:24:52;13.00;73.30
913;DHT22;443;51.448;7.028;2023-04-25T04:27:19;13.00;73.90
913;DHT22;443;51.448;7.028;2023-04-25T04:29:47;13.00;72.90
913;DHT22;443;51.448;7.028;2023-04-25T04:32:16;13.00;73.00
913;DHT22;443;51.448;7.028;2023-04-25T04:34:43;13.00;73.40
913;DHT22;443;51.448;7.028;2023-04-25T04:37:12;13.10;73.30
913;DHT22;443;51.448;7.028;2023-04-25T04:39:40;13.10;74.00
913;DHT22;443;51.448;7.028;2023-04-25T04:42:07;13.10;74.50
913;DHT22;443;51.448;7.028;2023-04-25T04:44:34;13.10;73.10
913;DHT22;443;51.448;7.028;2023-04-25T04:47:00;13.10;72.80
913;DHT22;443;51.448;7.028;2023-04-25T04:49:30;13.10;73.80
913;DHT22;443;51.448;7.028;2023-04-25T04:51:57;13.10;73.20
913;DHT22;443;51.448;7.028;2023-04-25T04:54:25;13.10;73.60
913;DHT22;443;51.448;7.028;2023-04-25T04:56:52;13.10;73.90
913;DHT22;443;51.448;7.028;2023-04-25T04:59:19;13.10;73.90
913;DHT22;443;51.448;7.028;2023-04-25T05:01:45;13.10;73.20
913;DHT22;443;51.448;7.028;2023-04-25T05:04:12;13.10;73.70
913;DHT22;443;51.448;7.028;2023-04-25T05:06:40;13.20;74.20
913;DHT22;443;51.448;7.028;2023-04-25T05:09:07;13.10;74.30
913;DHT22;443;51.448;7.028;2023-04-25T05:11:34;13.10;74.00
913;DHT22;443;51.448;7.028;2023-04-25T05:14:00;13.10;73.30
913;DHT22;443;51.448;7.028;2023-04-25T05:16:27;13.10;73.00
913;DHT22;443;51.448;7.028;2023-04-25T05:18:54;13.10;73.80
913;DHT22;443;51.448;7.028;2023-04-25T05:21:21;13.10;73.50
913;DHT22;443;51.448;7.028;2023-04-25T05:23:49;13.20;74.40
913;DHT22;443;51.448;7.028;2023-04-25T05:26:15;13.10;72.50
913;DHT22;443;51.448;7.028;2023-04-25T05:28:42;13.10;73.00
913;DHT22;443;51.448;7.028;2023-04-25T05:31:10;13.10;73.00
913;DHT22;443;51.448;7.028;2023-04-25T05:33:36;13.20;73.30
913;DHT22;443;51.448;7.028;2023-04-25T05:36:04;13.20;73.90
913;DHT22;443;51.448;7.028;2023-04-25T05:38:30;13.20;72.90
913;DHT22;443;51.448;7.028;2023-04-25T05:40:59;13.20;73.20
913;DHT22;443;51.448;7.028;2023-04-25T05:43:25;13.20;73.10
913;DHT22;443;51.448;7.028;2023-04-25T05:45:52;13.20;72.20
913;DHT22;443;51.448;7.028;2023-04-25T05:48:19;13.20;73.10
913;DHT22;443;51.448;7.028;2023-04-25T05:50:46;13.30;73.90
913;DHT22;443;51.448;7.028;2023-04-25T05:53:12;13.30;73.90
913;DHT22;443;51.448;7.028;2023-04-25T05:55:39;13.30;73.10
913;DHT22;443;51.448;7.028;2023-04-25T05:58:07;13.30;73.50
913;DHT22;443;51.448;7.028;2023-04-25T06:00:34;13.30;73.20
913;DHT22;443;51.448;7.028;2023-04-25T06:03:01;13.30;73.70
913;DHT22;443;51.448;7.028;2023-04-25T06:05:28;13.30;73.70
913;DHT22;443;51.448;7.028;2023-04-25T06:07:55;13.40;73.90
913;DHT22;443;51.448;7.028;2023-04-25T06:10:22;13.30;72.10
913;DHT22;443;51.448;7.028;2023-04-25T06:12:49;13.30;73.20
913;DHT22;443;51.448;7.028;2023-04-25T06:15:17;13.30;71.80
913;DHT22;443;51.448;7.028;2023-04-25T06:17:44;13.30;72.30
913;DHT22;443;51.448;7.028;2023-04-25T06:20:11;13.30;72.20
913;DHT22;443;51.448;7.028;2023-04-25T06:22:38;13.30;72.40
913;DHT22;443;51.448;7.028;2023-04-25T06:25:05;13.30;72.90
913;DHT22;443;51.448;7.028;2023-04-25T06:27:32;13.40;72.20
913;DHT22;443;51.448;7.028;2023-04-25T06:29:59;13.50;73.50
913;DHT22;443;51.448;7.028;2023-04-25T06:32:27;13.50;72.50
913;DHT22;443;51.448;7.028;2023-04-25T06:34:55;13.60;73.80
913;DHT22;443;51.448;7.028;2023-04-25T06:37:22;13.60;71.50
913;DHT22;443;51.448;7.028;2023-04-25T06:39:48;13.60;71.00
913;DHT22;443;51.448;7.028;2023-04-25T06:42:15;13.70;72.50
913;DHT22;443;51.448;7.028;2023-04-25T06:44:42;13.70;73.30
913;DHT22;443;51.448;7.028;2023-04-25T06:47:09;13.70;72.40
913;DHT22;443;51.448;7.028;2023-04-25T06:49:37;13.60;71.80
913;DHT22;443;51.448;7.028;2023-04-25T06:52:03;13.70;74.90
913;DHT22;443;51.448;7.028;2023-04-25T06:54:30;13.60;70.40
913;DHT22;443;51.448;7.028;2023-04-25T06:56:57;13.70;74.00
913;DHT22;443;51.448;7.028;2023-04-25T06:59:26;13.60;70.60
913;DHT22;443;51.448;7.028;2023-04-25T07:01:53;13.70;74.20
913;DHT22;443;51.448;7.028;2023-04-25T07:04:19;13.80;74.00
913;DHT22;443;51.448;7.028;2023-04-25T07:06:48;13.80;71.40
913;DHT22;443;51.448;7.028;2023-04-25T07:09:15;13.70;70.00
913;DHT22;443;51.448;7.028;2023-04-25T07:11:42;13.60;70.30
913;DHT22;443;51.448;7.028;2023-04-25T07:14:08;13.60;70.30
913;DHT22;443;51.448;7.028;2023-04-25T07:16:35;13.60;69.90
913;DHT22;443;51.448;7.028;2023-04-25T07:19:02;13.60;70.10
913;DHT22;443;51.448;7.028;2023-04-25T07:21:29;13.60;69.90
913;DHT22;443;51.448;7.028;2023-04-25T07:23:58;13.50;69.60
913;DHT22;443;51.448;7.028;2023-04-25T07:26:24;13.50;69.90
913;DHT22;443;51.448;7.028;2023-04-25T07:28:51;13.60;70.50
913;DHT22;443;51.448;7.028;2023-04-25T07:31:18;13.60;71.30
913;DHT22;443;51.448;7.028;2023-04-25T07:33:45;13.70;72.20
913;DHT22;443;51.448;7.028;2023-04-25T07:36:12;13.60;70.30
913;DHT22;443;51.448;7.028;2023-04-25T07:38:40;13.50;69.20
913;DHT22;443;51.448;7.028;2023-04-25T07:41:08;13.50;68.20
913;DHT22;443;51.448;7.028;2023-04-25T07:43:35;13.50;69.50
913;DHT22;443;51.448;7.028;2023-04-25T07:46:02;13.50;69.70
913;DHT22;443;51.448;7.028;2023-04-25T07:48:29;13.60;69.30
913;DHT22;443;51.448;7.028;2023-04-25T07:50:55;13.60;71.90
913;DHT22;443;51.448;7.028;2023-04-25T07:53:22;13.80;71.90
913;DHT22;443;51.448;7.028;2023-04-25T07:55:50;13.80;70.60
913;DHT22;443;51.448;7.028;2023-04-25T07:58:18;13.70;68.10
913;DHT22;443;51.448;7.028;2023-04-25T08:00:46;13.90;74.50
913;DHT22;443;51.448;7.028;2023-04-25T08:03:13;13.80;68.90
913;DHT22;443;51.448;7.028;2023-04-25T08:05:40;13.70;68.60
913;DHT22;443;51.448;7.028;2023-04-25T08:08:07;13.90;71.10
913;DHT22;443;51.448;7.028;2023-04-25T08:10:33;13.90;68.00
913;DHT22;443;51.448;7.028;2023-04-25T08:13:00;13.90;68.20
913;DHT22;443;51.448;7.028;2023-04-25T08:15:28;14.00;71.40
913;DHT22;443;51.448;7.028;2023-04-25T08:17:55;14.10;70.90
913;DHT22;443;51.448;7.028;2023-04-25T08:20:22;14.10;68.80
913;DHT22;443;51.448;7.028;2023-04-25T08:22:48;14.00;67.60
913;DHT22;443;51.448;7.028;2023-04-25T08:25:15;13.90;65.70
913;DHT22;443;51.448;7.028;2023-04-25T08:27:43;14.00;67.50
913;DHT22;443;51.448;7.028;2023-04-25T08:30:10;14.10;68.30
913;DHT22;443;51.448;7.028;2023-04-25T08:32:38;14.20;71.40
913;DHT22;443;51.448;7.028;2023-04-25T08:35:06;14.00;67.30
913;DHT22;443;51.448;7.028;2023-04-25T08:37:33;14.10;67.60
913;DHT22;443;51.448;7.028;2023-04-25T08:39:59;14.00;67.30
913;DHT22;443;51.448;7.028;2023-04-25T08:42:27;14.00;66.40
913;DHT22;443;51.448;7.028;2023-04-25T08:44:54;14.10;68.50
913;DHT22;443;51.448;7.028;2023-04-25T08:47:22;14.00;66.70
913;DHT22;443;51.448;7.028;2023-04-25T08:49:51;14.10;69.90
913;DHT22;443;51.448;7.028;2023-04-25T08:52:22;14.20;70.40
913;DHT22;443;51.448;7.028;2023-04-25T08:54:49;14.20;66.70
913;DHT22;443;51.448;7.028;2023-04-25T08:57:18;14.10;66.10
913;DHT22;443;51.448;7.028;2023-04-25T08:59:46;14.10;70.10
913;DHT22;443;51.448;7.028;2023-04-25T09:02:14;14.20;66.50
913;DHT22;443;51.448;7.028;2023-04-25T09:04:43;14.10;64.50
913;DHT22;443;51.448;7.028;2023-04-25T09:07:12;14.10;65.50
913;DHT22;443;51.448;7.028;2023-04-25T09:09:41;14.10;66.10
913;DHT22;443;51.448;7.028;2023-04-25T09:12:08;14.10;66.60
913;DHT22;443;51.448;7.028;2023-04-25T09:14:35;14.10;68.20
913;DHT22;443;51.448;7.028;2023-04-25T09:17:03;14.10;65.40
913;DHT22;443;51.448;7.028;2023-04-25T09:19:32;14.10;65.00
913;DHT22;443;51.448;7.028;2023-04-25T09:22:02;14.10;62.90
913;DHT22;443;51.448;7.028;2023-04-25T09:24:35;14.10;68.30
913;DHT22;443;51.448;7.028;2023-04-25T09:27:05;14.20;67.70
913;DHT22;443;51.448;7.028;2023-04-25T09:29:34;14.10;63.50
913;DHT22;443;51.448;7.028;2023-04-25T09:32:18;14.10;63.50
913;DHT22;443;51.448;7.028;2023-04-25T09:34:47;14.10;65.00
913;DHT22;443;51.448;7.028;2023-04-25T09:37:18;14.10;64.90
913;DHT22;443;51.448;7.028;2023-04-25T09:39:47;14.10;67.40
913;DHT22;443;51.448;7.028;2023-04-25T09:42:15;14.30;65.40
913;DHT22;443;51.448;7.028;2023-04-25T09:44:43;14.20;63.60
913;DHT22;443;51.448;7.028;2023-04-25T09:47:11;14.20;62.60
913;DHT22;443;51.448;7.028;2023-04-25T09:49:40;14.30;67.40
913;DHT22;443;51.448;7.028;2023-04-25T09:52:08;14.30;66.10
913;DHT22;443;51.448;7.028;2023-04-25T09:54:35;14.20;66.00
913;DHT22;443;51.448;7.028;2023-04-25T09:57:09;14.30;63.30
913;DHT22;443;51.448;7.028;2023-04-25T09:59:39;14.30;64.70
913;DHT22;443;51.448;7.028;2023-04-25T10:02:07;14.20;61.70
913;DHT22;443;51.448;7.028;2023-04-25T10:04:35;14.20;64.90
913;DHT22;443;51.448;7.028;2023-04-25T10:07:03;14.20;64.50
913;DHT22;443;51.448;7.028;2023-04-25T10:09:32;14.20;64.50
913;DHT22;443;51.448;7.028;2023-04-25T10:12:00;14.30;64.50
913;DHT22;443;51.448;7.028;2023-04-25T10:14:29;14.30;65.60
913;DHT22;443;51.448;7.028;2023-04-25T10:16:57;14.20;61.80
913;DHT22;443;51.448;7.028;2023-04-25T10:19:25;14.20;66.90
913;DHT22;443;51.448;7.028;2023-04-25T10:21:54;14.30;67.80
913;DHT22;443;51.448;7.028;2023-04-25T10:24:22;14.30;65.10
913;DHT22;443;51.448;7.028;2023-04-25T10:26:49;14.40;66.40
913;DHT22;443;51.448;7.028;2023-04-25T10:29:22;14.40;64.20
913;DHT22;443;51.448;7.028;2023-04-25T10:31:51;14.40;63.90
913;DHT22;443;51.448;7.028;2023-04-25T10:34:18;14.40;63.10
913;DHT22;443;51.448;7.028;2023-04-25T10:36:49;14.40;64.40
913;DHT22;443;51.448;7.028;2023-04-25T10:39:23;14.40;60.70
913;DHT22;443;51.448;7.028;2023-04-25T10:41:55;14.40;62.70
913;DHT22;443;51.448;7.028;2023-04-25T10:44:22;14.30;61.00
913;DHT22;443;51.448;7.028;2023-04-25T10:46:50;14.30;65.50
913;DHT22;443;51.448;7.028;2023-04-25T10:49:33;14.40;61.70
913;DHT22;443;51.448;7.028;2023-04-25T10:52:18;14.30;62.10
913;DHT22;443;51.448;7.028;2023-04-25T10:54:48;14.30;66.60
913;DHT22;443;51.448;7.028;2023-04-25T10:57:37;14.20;64.60
913;DHT22;443;51.448;7.028;2023-04-25T11:00:10;14.20;65.10
913;DHT22;443;51.448;7.028;2023-04-25T11:02:41;14.20;68.10
913;DHT22;443;51.448;7.028;2023-04-25T11:05:08;14.20;67.20
913;DHT22;443;51.448;7.028;2023-04-25T11:07:39;14.20;65.60
913;DHT22;443;51.448;7.028;2023-04-25T11:10:10;14.20;68.00
913;DHT22;443;51.448;7.028;2023-04-25T11:12:36;14.30;71.20
913;DHT22;443;51.448;7.028;2023-04-25T11:15:05;14.20;67.20
913;DHT22;443;51.448;7.028;2023-04-25T11:17:32;14.40;73.20
913;DHT22;443;51.448;7.028;2023-04-25T11:20:01;14.30;68.00
913;DHT22;443;51.448;7.028;2023-04-25T11:22:28;14.30;69.40
913;DHT22;443;51.448;7.028;2023-04-25T11:24:55;14.20;64.80
913;DHT22;443;51.448;7.028;2023-04-25T11:27:22;14.30;66.00
913;DHT22;443;51.448;7.028;2023-04-25T11:29:50;14.30;65.50
913;DHT22;443;51.448;7.028;2023-04-25T11:32:17;14.20;64.50
913;DHT22;443;51.448;7.028;2023-04-25T11:34:44;14.20;64.40
913;DHT22;443;51.448;7.028;2023-04-25T11:37:14;14.20;65.70
913;DHT22;443;51.448;7.028;2023-04-25T11:39:44;14.20;63.90
913;DHT22;443;51.448;7.028;2023-04-25T11:42:12;14.30;67.90
913;DHT22;443;51.448;7.028;2023-04-25T11:44:39;14.30;64.30
913;DHT22;443;51.448;7.028;2023-04-25T11:47:06;14.30;62.90
913;DHT22;443;51.448;7.028;2023-04-25T11:49:33;14.40;67.20
913;DHT22;443;51.448;7.028;2023-04-25T11:52:01;14.50;67.90
913;DHT22;443;51.448;7.028;2023-04-25T11:54:29;14.40;63.00
913;DHT22;443;51.448;7.028;2023-04-25T11:56:56;14.40;64.30
913;DHT22;443;51.448;7.028;2023-04-25T11:59:24;14.50;64.50
913;DHT22;443;51.448;7.028;2023-04-25T12:01:51;14.50;66.80
913;DHT22;443;51.448;7.028;2023-04-25T12:04:19;14.40;62.50
913;DHT22;443;51.448;7.028;2023-04-25T12:06:47;14.40;64.90
913;DHT22;443;51.448;7.028;2023-04-25T12:09:16;14.40;63.20
913;DHT22;443;51.448;7.028;2023-04-25T12:11:46;14.40;62.40
913;DHT22;443;51.448;7.028;2023-04-25T12:14:21;14.40;65.80
913;DHT22;443;51.448;7.028;2023-04-25T12:16:50;14.40;66.50
913;DHT22;443;51.448;7.028;2023-04-25T12:19:18;14.40;68.30
913;DHT22;443;51.448;7.028;2023-04-25T12:21:45;14.30;68.50
913;DHT22;443;51.448;7.028;2023-04-25T12:24:14;14.30;68.70
913;DHT22;443;51.448;7.028;2023-04-25T12:26:49;14.30;67.50
913;DHT22;443;51.448;7.028;2023-04-25T12:29:18;14.30;68.60
913;DHT22;443;51.448;7.028;2023-04-25T12:31:45;14.30;64.30
913;DHT22;443;51.448;7.028;2023-04-25T12:34:12;14.20;61.80
913;DHT22;443;51.448;7.028;2023-04-25T12:36:40;14.30;63.30
913;DHT22;443;51.448;7.028;2023-04-25T12:39:07;14.30;63.60
913;DHT22;443;51.448;7.028;2023-04-25T12:41:33;14.30;68.30
913;DHT22;443;51.448;7.028;2023-04-25T12:44:01;14.30;63.20
913;DHT22;443;51.448;7.028;2023-04-25T12:46:28;14.30;63.90
913;DHT22;443;51.448;7.028;2023-04-25T12:48:55;14.40;68.90
913;DHT22;443;51.448;7.028;2023-04-25T12:51:22;14.40;65.70
913;DHT22;443;51.448;7.028;2023-04-25T12:53:50;14.40;67.50
913;DHT22;443;51.448;7.028;2023-04-25T12:56:18;14.40;64.20
913;DHT22;443;51.448;7.028;2023-04-25T12:58:44;14.50;69.00
913;DHT22;443;51.448;7.028;2023-04-25T13:01:13;14.50;64.80
913;DHT22;443;51.448;7.028;2023-04-25T13:03:40;14.50;63.90
913;DHT22;443;51.448;7.028;2023-04-25T13:06:07;14.60;65.00
913;DHT22;443;51.448;7.028;2023-04-25T13:08:34;14.60;62.40
913;DHT22;443;51.448;7.028;2023-04-25T13:11:02;14.70;66.80
913;DHT22;443;51.448;7.028;2023-04-25T13:13:29;14.60;63.60
913;DHT22;443;51.448;7.028;2023-04-25T13:15:57;14.60;63.30
913;DHT22;443;51.448;7.028;2023-04-25T13:18:25;14.60;65.10
913;DHT22;443;51.448;7.028;2023-04-25T13:20:52;14.60;67.90
913;DHT22;443;51.448;7.028;2023-04-25T13:23:19;14.50;63.90
913;DHT22;443;51.448;7.028;2023-04-25T13:25:46;14.60;66.90
913;DHT22;443;51.448;7.028;2023-04-25T13:28:13;14.50;65.40
913;DHT22;443;51.448;7.028;2023-04-25T13:30:41;14.50;65.40
913;DHT22;443;51.448;7.028;2023-04-25T13:33:08;14.40;67.30
913;DHT22;443;51.448;7.028;2023-04-25T13:35:37;14.40;64.40
913;DHT22;443;51.448;7.028;2023-04-25T13:38:04;14.40;65.70
913;DHT22;443;51.448;7.028;2023-04-25T13:40:31;14.40;63.80
913;DHT22;443;51.448;7.028;2023-04-25T13:42:58;14.60;67.60
913;DHT22;443;51.448;7.028;2023-04-25T13:45:25;14.80;63.50
913;DHT22;443;51.448;7.028;2023-04-25T13:47:52;14.90;62.30
913;DHT22;443;51.448;7.028;2023-04-25T13:50:19;15.00;65.80
913;DHT22;443;51.448;7.028;2023-04-25T13:52:47;15.10;64.80
913;DHT22;443;51.448;7.028;2023-04-25T13:55:14;15.20;63.50
913;DHT22;443;51.448;7.028;2023-04-25T13:57:41;15.40;59.30
913;DHT22;443;51.448;7.028;2023-04-25T14:00:09;15.60;63.70
913;DHT22;443;51.448;7.028;2023-04-25T14:02:36;15.70;63.30
913;DHT22;443;51.448;7.028;2023-04-25T14:05:03;15.90;61.70
913;DHT22;443;51.448;7.028;2023-04-25T14:07:31;16.00;62.30
913;DHT22;443;51.448;7.028;2023-04-25T14:09:59;16.00;61.10
913;DHT22;443;51.448;7.028;2023-04-25T14:12:26;16.00;63.10
913;DHT22;443;51.448;7.028;2023-04-25T14:14:53;15.80;64.60
913;DHT22;443;51.448;7.028;2023-04-25T14:17:19;15.70;63.80
913;DHT22;443;51.448;7.028;2023-04-25T14:19:46;15.70;63.50
913;DHT22;443;51.448;7.028;2023-04-25T14:22:13;15.70;65.00
913;DHT22;443;51.448;7.028;2023-04-25T14:24:40;15.70;64.80
913;DHT22;443;51.448;7.028;2023-04-25T14:27:09;15.60;64.60
913;DHT22;443;51.448;7.028;2023-04-25T14:29:35;15.60;61.10
913;DHT22;443;51.448;7.028;2023-04-25T14:32:02;15.60;59.80
913;DHT22;443;51.448;7.028;2023-04-25T14:34:30;15.80;62.90
913;DHT22;443;51.448;7.028;2023-04-25T14:36:57;15.90;64.70
913;DHT22;443;51.448;7.028;2023-04-25T14:39:26;16.00;66.90
913;DHT22;443;51.448;7.028;2023-04-25T14:41:53;16.10;63.20
913;DHT22;443;51.448;7.028;2023-04-25T14:44:21;16.20;63.30
913;DHT22;443;51.448;7.028;2023-04-25T14:46:48;16.30;64.00
913;DHT22;443;51.448;7.028;2023-04-25T14:49:17;16.20;64.10
913;DHT22;443;51.448;7.028;2023-04-25T14:51:43;16.10;65.20
913;DHT22;443;51.448;7.028;2023-04-25T14:54:10;15.90;64.20
913;DHT22;443;51.448;7.028;2023-04-25T14:56:37;15.80;64.30
913;DHT22;443;51.448;7.028;2023-04-25T14:59:04;15.80;62.20
913;DHT22;443;51.448;7.028;2023-04-25T15:01:32;15.70;64.70
913;DHT22;443;51.448;7.028;2023-04-25T15:03:59;15.60;65.70
913;DHT22;443;51.448;7.028;2023-04-25T15:06:26;15.60;65.20
913;DHT22;443;51.448;7.028;2023-04-25T15:08:54;15.70;66.90
913;DHT22;443;51.448;7.028;2023-04-25T15:11:21;15.90;65.40
913;DHT22;443;51.448;7.028;2023-04-25T15:13:47;16.00;65.70
913;DHT22;443;51.448;7.028;2023-04-25T15:16:14;16.20;64.50
913;DHT22;443;51.448;7.028;2023-04-25T15:18:42;16.10;66.30
913;DHT22;443;51.448;7.028;2023-04-25T15:21:09;16.10;66.60
913;DHT22;443;51.448;7.028;2023-04-25T15:23:36;16.30;61.40
913;DHT22;443;51.448;7.028;2023-04-25T15:26:03;16.30;64.30
913;DHT22;443;51.448;7.028;2023-04-25T15:28:30;16.40;62.30
913;DHT22;443;51.448;7.028;2023-04-25T15:30:59;16.50;64.30
913;DHT22;443;51.448;7.028;2023-04-25T15:33:25;16.50;64.10
913;DHT22;443;51.448;7.028;2023-04-25T15:35:54;16.60;65.30
913;DHT22;443;51.448;7.028;2023-04-25T15:38:21;16.70;64.70
913;DHT22;443;51.448;7.028;2023-04-25T15:40:48;16.60;64.60
913;DHT22;443;51.448;7.028;2023-04-25T15:43:15;16.60;64.90
913;DHT22;443;51.448;7.028;2023-04-25T15:45:42;16.70;65.30
913;DHT22;443;51.448;7.028;2023-04-25T15:48:09;16.90;65.00
913;DHT22;443;51.448;7.028;2023-04-25T15:50:36;16.90;63.90
913;DHT22;443;51.448;7.028;2023-04-25T15:53:04;16.80;64.30
913;DHT22;443;51.448;7.028;2023-04-25T15:55:31;16.80;64.80
913;DHT22;443;51.448;7.028;2023-04-25T15:57:58;16.90;64.70
913;DHT22;443;51.448;7.028;2023-04-25T16:00:25;17.30;64.70
913;DHT22;443;51.448;7.028;2023-04-25T16:02:52;17.50;64.20
913;DHT22;443;51.448;7.028;2023-04-25T16:05:19;17.20;63.80
913;DHT22;443;51.448;7.028;2023-04-25T16:07:46;16.90;63.90
913;DHT22;443;51.448;7.028;2023-04-25T16:10:14;16.70;63.80
913;DHT22;443;51.448;7.028;2023-04-25T16:12:44;16.60;64.50
913;DHT22;443;51.448;7.028;2023-04-25T16:15:12;16.50;63.80
913;DHT22;443;51.448;7.028;2023-04-25T16:17:39;16.50;64.40
913;DHT22;443;51.448;7.028;2023-04-25T16:20:07;16.30;62.10
913;DHT22;443;51.448;7.028;2023-04-25T16:22:35;16.20;63.30
913;DHT22;443;51.448;7.028;2023-04-25T16:25:02;16.10;63.60
913;DHT22;443;51.448;7.028;2023-04-25T16:27:31;16.10;60.80
913;DHT22;443;51.448;7.028;2023-04-25T16:29:59;16.00;62.20
913;DHT22;443;51.448;7.028;2023-04-25T16:32:26;16.00;59.60
913;DHT22;443;51.448;7.028;2023-04-25T16:34:52;16.00;63.70
913;DHT22;443;51.448;7.028;2023-04-25T16:37:19;16.00;61.90